createdAt,value
2023-11-08T00:01:07.433Z,91.29
2023-11-08T00:03:35.544Z,91.14
2023-11-08T00:06:06.804Z,91.21
2023-11-08T00:08:41.091Z,91.02
2023-11-08T00:11:16.285Z,90.86
2023-11-08T00:13:46.983Z,90.44
2023-11-08T00:16:15.004Z,90.57
2023-11-08T00:18:45.749Z,90.52
2023-11-08T00:21:13.826Z,90.25
2023-11-08T00:23:42.426Z,90.17
2023-11-08T00:26:13.484Z,90.04
2023-11-08T00:28:43.053Z,89.76
2023-11-08T00:31:11.396Z,89.66
2023-11-08T00:33:46.336Z,89.52
2023-11-08T00:36:22.189Z,89.22
2023-11-08T00:38:58.354Z,89.20
2023-11-08T00:41:27.155Z,88.90
2023-11-08T00:44:02.242Z,88.84
2023-11-08T00:46:30.279Z,88.77
2023-11-08T00:48:58.241Z,88.82
2023-11-08T00:51:26.264Z,88.79
2023-11-08T00:53:54.242Z,88.75
2023-11-08T00:56:22.402Z,88.67
2023-11-08T00:58:50.365Z,88.83
2023-11-08T01:01:18.559Z,88.58
2023-11-08T01:03:46.694Z,88.43
2023-11-08T01:06:14.694Z,88.04
2023-11-08T01:08:44.151Z,87.89
2023-11-08T01:11:12.188Z,87.93
2023-11-08T01:13:40.208Z,87.90
2023-11-08T01:16:08.411Z,87.94
2023-11-08T01:18:37.238Z,87.73
2023-11-08T01:21:05.501Z,87.65
2023-11-08T01:23:33.533Z,87.65
2023-11-08T01:26:01.575Z,87.43
2023-11-08T01:28:32.548Z,87.40
2023-11-08T01:31:00.468Z,87.50
2023-11-08T01:33:28.546Z,87.50
2023-11-08T01:35:56.578Z,87.24
2023-11-08T01:38:24.612Z,87.07
2023-11-08T01:40:53.924Z,86.92
2023-11-08T01:43:29.542Z,87.00
2023-11-08T01:46:29.713Z,86.63
2023-11-08T01:49:01.394Z,86.40
2023-11-08T01:51:29.619Z,86.63
2023-11-08T01:53:58.547Z,86.63
2023-11-08T01:56:26.935Z,86.72
2023-11-08T01:58:57.441Z,86.73
2023-11-08T02:01:25.762Z,86.52
2023-11-08T02:03:57.117Z,86.63
2023-11-08T02:06:25.184Z,86.69
2023-11-08T02:08:53.485Z,86.51
2023-11-08T02:11:21.493Z,86.65
2023-11-08T02:13:49.454Z,86.71
2023-11-08T02:16:17.485Z,86.79
2023-11-08T02:18:45.452Z,86.63
2023-11-08T02:21:16.603Z,86.65
2023-11-08T02:23:44.563Z,86.54
2023-11-08T02:26:12.516Z,86.22
2023-11-08T02:28:40.565Z,86.32
2023-11-08T02:31:08.554Z,86.38
2023-11-08T02:33:36.792Z,86.26
2023-11-08T02:36:05.126Z,86.32
2023-11-08T02:38:33.107Z,86.42
2023-11-08T02:41:01.057Z,86.38
2023-11-08T02:43:29.062Z,86.25
2023-11-08T02:45:56.959Z,86.41
2023-11-08T02:48:25.017Z,86.36
2023-11-08T02:50:54.310Z,86.39
2023-11-08T02:53:22.828Z,86.46
2023-11-08T02:55:50.824Z,86.39
2023-11-08T02:58:18.765Z,86.39
2023-11-08T03:00:47.611Z,86.38
2023-11-08T03:03:16.017Z,86.46
2023-11-08T03:05:44.054Z,86.53
2023-11-08T03:08:12.013Z,86.61
2023-11-08T03:10:40.534Z,86.94
2023-11-08T03:13:08.457Z,86.97
2023-11-08T03:15:36.803Z,87.02
2023-11-08T03:18:05.929Z,87.18
2023-11-08T03:20:34.827Z,87.26
2023-11-08T03:23:02.738Z,87.32
2023-11-08T03:25:30.706Z,87.38
2023-11-08T03:27:58.664Z,87.59
2023-11-08T03:30:26.657Z,87.95
2023-11-08T03:32:56.782Z,88.08
2023-11-08T03:35:24.890Z,87.86
2023-11-08T03:37:52.906Z,87.82
2023-11-08T03:40:20.799Z,88.08
2023-11-08T03:42:49.207Z,87.95
2023-11-08T03:45:17.378Z,87.85
2023-11-08T03:47:45.381Z,88.01
2023-11-08T03:50:14.465Z,88.14
2023-11-08T03:52:42.678Z,87.95
2023-11-08T03:55:10.842Z,87.73
2023-11-08T03:57:38.834Z,87.92
2023-11-08T04:00:07.708Z,88.02
2023-11-08T04:02:35.593Z,87.86
2023-11-08T04:05:03.575Z,87.68
2023-11-08T04:07:31.634Z,87.76
2023-11-08T04:09:59.550Z,87.81
2023-11-08T04:12:27.853Z,87.86
2023-11-08T04:14:55.726Z,87.30
2023-11-08T04:17:23.638Z,87.50
2023-11-08T04:19:51.571Z,87.70
2023-11-08T04:22:20.371Z,87.93
2023-11-08T04:24:48.542Z,87.95
2023-11-08T04:27:16.601Z,87.85
2023-11-08T04:29:44.579Z,87.93
2023-11-08T04:32:12.474Z,88.15
2023-11-08T04:34:47.377Z,88.11
2023-11-08T04:37:16.603Z,87.84
2023-11-08T04:39:53.933Z,87.98
2023-11-08T04:42:24.783Z,88.14
2023-11-08T04:44:52.690Z,88.33
2023-11-08T04:47:20.966Z,88.33
2023-11-08T04:49:49.942Z,88.45
2023-11-08T04:52:23.941Z,88.52
2023-11-08T04:54:55.374Z,88.90
2023-11-08T04:57:23.396Z,88.79
2023-11-08T04:59:52.049Z,89.07
2023-11-08T05:02:23.769Z,88.80
2023-11-08T05:04:51.854Z,88.89
2023-11-08T05:07:22.899Z,88.97
2023-11-08T05:09:53.150Z,89.06
2023-11-08T05:12:24.107Z,89.16
2023-11-08T05:14:52.075Z,89.21
2023-11-08T05:17:20.648Z,89.25
2023-11-08T05:19:53.682Z,89.26
2023-11-08T05:22:21.624Z,89.00
2023-11-08T05:24:49.721Z,88.81
2023-11-08T05:27:21.281Z,88.69
2023-11-08T05:29:49.241Z,89.20
2023-11-08T05:32:20.507Z,89.21
2023-11-08T05:34:51.735Z,89.02
2023-11-08T05:37:20.255Z,88.90
2023-11-08T05:39:49.215Z,89.02
2023-11-08T05:42:18.607Z,88.92
2023-11-08T05:44:49.536Z,89.11
2023-11-08T05:47:17.613Z,88.83
2023-11-08T05:50:12.774Z,88.67
2023-11-08T05:52:40.714Z,88.48
2023-11-08T05:55:10.192Z,88.52
2023-11-08T05:57:43.854Z,88.60
2023-11-08T06:00:12.453Z,88.31
2023-11-08T06:02:42.886Z,88.13
2023-11-08T06:05:11.755Z,87.64
2023-11-08T06:07:43.287Z,87.74
2023-11-08T06:10:11.757Z,87.75
2023-11-08T06:12:40.081Z,87.11
2023-11-08T06:15:09.465Z,87.56
2023-11-08T06:17:37.538Z,87.64
2023-11-08T06:20:06.831Z,87.63
2023-11-08T06:22:35.091Z,87.64
2023-11-08T06:25:03.467Z,87.98
2023-11-08T06:27:31.373Z,86.75
2023-11-08T06:29:59.461Z,87.63
2023-11-08T06:32:27.422Z,88.15
2023-11-08T06:34:55.399Z,88.15
2023-11-08T06:37:23.565Z,88.37
2023-11-08T06:39:51.625Z,88.06
2023-11-08T06:42:19.600Z,88.10
2023-11-08T06:44:47.524Z,87.86
2023-11-08T06:47:15.773Z,87.74
2023-11-08T06:49:43.954Z,87.77
2023-11-08T06:52:11.940Z,87.50
2023-11-08T06:54:43.537Z,86.82
2023-11-08T06:57:12.125Z,86.80
2023-11-08T06:59:40.159Z,86.92
2023-11-08T07:02:08.796Z,87.09
2023-11-08T07:04:36.932Z,86.89
2023-11-08T07:07:05.360Z,86.71
2023-11-08T07:09:33.906Z,86.75
2023-11-08T07:12:01.885Z,86.88
2023-11-08T07:14:30.133Z,86.72
2023-11-08T07:16:58.223Z,85.74
2023-11-08T07:19:26.277Z,86.41
2023-11-08T07:21:54.630Z,86.27
2023-11-08T07:24:22.629Z,86.18
2023-11-08T07:26:52.382Z,86.00
2023-11-08T07:29:20.560Z,85.08
2023-11-08T07:31:48.470Z,85.57
2023-11-08T07:34:16.495Z,85.50
2023-11-08T07:36:45.041Z,85.35
2023-11-08T07:39:26.876Z,85.29
2023-11-08T07:41:55.957Z,85.15
2023-11-08T07:44:23.890Z,85.61
2023-11-08T07:46:51.992Z,85.66
2023-11-08T07:49:20.075Z,85.60
2023-11-08T07:51:48.094Z,85.76
2023-11-08T07:54:16.011Z,85.78
2023-11-08T07:56:44.048Z,85.50
2023-11-08T07:59:12.431Z,85.23
2023-11-08T08:01:40.561Z,84.87
2023-11-08T08:04:08.758Z,84.82
2023-11-08T08:06:36.856Z,84.34
2023-11-08T08:09:05.079Z,84.09
2023-11-08T08:11:34.713Z,83.81
2023-11-08T08:14:02.581Z,83.21
2023-11-08T08:16:30.489Z,83.02
2023-11-08T08:19:00.486Z,82.38
2023-11-08T08:21:29.353Z,81.20
2023-11-08T08:24:04.834Z,81.68
2023-11-08T08:26:36.217Z,81.30
2023-11-08T08:29:04.497Z,81.45
2023-11-08T08:31:32.435Z,81.27
2023-11-08T08:34:00.486Z,80.86
2023-11-08T08:36:30.964Z,80.93
2023-11-08T08:38:59.396Z,80.79
2023-11-08T08:41:27.348Z,80.20
2023-11-08T08:43:57.430Z,77.86
2023-11-08T08:46:25.527Z,75.91
2023-11-08T08:48:53.741Z,76.90
2023-11-08T08:51:21.913Z,76.96
2023-11-08T08:53:49.904Z,75.34
2023-11-08T08:56:17.877Z,74.46
2023-11-08T08:58:46.048Z,76.33
2023-11-08T09:01:14.813Z,75.49
2023-11-08T09:03:42.834Z,75.08
2023-11-08T09:06:11.827Z,74.87
2023-11-08T09:08:39.759Z,74.29
2023-11-08T09:11:07.771Z,71.25
2023-11-08T09:13:35.769Z,74.09
2023-11-08T09:16:05.559Z,74.33
2023-11-08T09:18:33.567Z,73.96
2023-11-08T09:21:02.059Z,73.27
2023-11-08T09:23:30.827Z,73.69
2023-11-08T09:25:59.322Z,70.26
2023-11-08T09:28:28.445Z,72.47
2023-11-08T09:30:57.557Z,70.82
2023-11-08T09:33:25.720Z,69.27
2023-11-08T09:35:54.363Z,71.75
2023-11-08T09:38:22.548Z,71.50
2023-11-08T09:40:50.626Z,68.45
2023-11-08T09:43:26.660Z,65.77
2023-11-08T09:45:56.964Z,66.87
2023-11-08T09:48:24.995Z,68.13
2023-11-08T09:50:54.126Z,67.74
2023-11-08T09:53:22.333Z,67.00
2023-11-08T09:55:51.574Z,68.30
2023-11-08T09:58:19.950Z,67.30
2023-11-08T10:00:49.236Z,68.22
2023-11-08T10:03:18.925Z,67.88
2023-11-08T10:05:49.492Z,66.19
2023-11-08T10:08:17.570Z,67.54
2023-11-08T10:10:47.506Z,67.16
2023-11-08T10:13:16.075Z,66.90
2023-11-08T10:15:44.364Z,66.83
2023-11-08T10:19:33.309Z,66.42
2023-11-08T10:21:18.491Z,65.90
2023-11-08T10:23:46.732Z,65.08
2023-11-08T10:26:25.748Z,66.06
2023-11-08T10:29:04.519Z,66.20
2023-11-08T10:31:43.437Z,65.60
2023-11-08T10:34:18.393Z,66.04
2023-11-08T10:36:46.390Z,66.49
2023-11-08T10:39:18.612Z,66.50
2023-11-08T10:41:48.059Z,66.32
2023-11-08T10:44:17.979Z,66.03
2023-11-08T10:46:45.903Z,65.95
2023-11-08T10:49:14.017Z,65.82
2023-11-08T10:51:43.521Z,65.87
2023-11-08T10:54:11.994Z,66.16
2023-11-08T10:56:40.437Z,65.31
2023-11-08T10:59:12.024Z,60.46
2023-11-08T11:01:43.868Z,64.36
2023-11-08T11:04:13.693Z,63.90
2023-11-08T11:06:42.914Z,64.62
2023-11-08T11:09:15.670Z,65.19
2023-11-08T11:11:54.927Z,64.43
2023-11-08T11:14:55.128Z,61.04
2023-11-08T11:17:33.047Z,61.71
2023-11-08T11:20:08.325Z,62.47
2023-11-08T11:22:37.138Z,62.90
2023-11-08T11:25:06.303Z,62.80
2023-11-08T11:27:43.355Z,62.33
2023-11-08T11:30:17.383Z,61.80
2023-11-08T11:32:49.100Z,61.00
2023-11-08T11:35:21.172Z,62.13
2023-11-08T11:38:20.513Z,60.34
2023-11-08T11:41:08.663Z,61.43
2023-11-08T11:43:40.639Z,62.42
2023-11-08T11:46:08.720Z,62.69
2023-11-08T11:48:38.177Z,61.72
2023-11-08T11:51:06.493Z,62.81
2023-11-08T11:53:34.663Z,62.55
2023-11-08T11:56:09.919Z,61.83
2023-11-08T11:58:38.183Z,60.03
2023-11-08T12:01:08.482Z,62.19
2023-11-08T12:03:38.467Z,61.91
2023-11-08T12:06:07.350Z,62.84
2023-11-08T12:08:35.893Z,62.70
2023-11-08T12:11:18.528Z,62.95
2023-11-08T12:13:51.665Z,61.90
2023-11-08T12:16:21.229Z,62.72
2023-11-08T12:18:51.781Z,60.29
2023-11-08T12:21:20.786Z,61.88
2023-11-08T12:23:51.613Z,61.10
2023-11-08T12:26:20.567Z,60.51
2023-11-08T12:28:48.988Z,60.59
2023-11-08T12:31:22.974Z,61.11
2023-11-08T12:33:51.788Z,60.41
2023-11-08T12:36:19.991Z,61.30
2023-11-08T12:38:48.379Z,61.49
2023-11-08T12:41:17.184Z,60.69
2023-11-08T12:44:02.552Z,60.83
2023-11-08T12:46:40.861Z,60.32
2023-11-08T12:49:18.724Z,61.03
2023-11-08T12:51:48.065Z,59.30
2023-11-08T12:54:17.040Z,59.75
2023-11-08T12:56:46.100Z,60.16
2023-11-08T12:59:21.986Z,60.30
2023-11-08T13:01:52.307Z,60.25
2023-11-08T13:04:21.592Z,60.09
2023-11-08T13:06:50.401Z,60.22
2023-11-08T13:09:18.515Z,59.22
2023-11-08T13:11:47.350Z,59.52
2023-11-08T13:14:16.571Z,59.88
2023-11-08T13:16:44.551Z,60.07
2023-11-08T13:19:12.660Z,60.07
2023-11-08T13:21:40.605Z,58.30
2023-11-08T13:24:09.345Z,59.20
2023-11-08T13:26:37.812Z,58.56
2023-11-08T13:29:06.138Z,57.68
2023-11-08T13:31:34.361Z,57.42
2023-11-08T13:34:02.380Z,57.88
2023-11-08T13:36:30.473Z,57.45
2023-11-08T13:38:59.355Z,55.84
2023-11-08T13:41:27.684Z,57.29
2023-11-08T13:43:55.691Z,57.64
2023-11-08T13:46:25.376Z,57.84
2023-11-08T13:48:53.419Z,57.11
2023-11-08T13:51:21.783Z,57.25
2023-11-08T13:53:49.730Z,57.73
2023-11-08T13:56:17.735Z,57.83
2023-11-08T13:58:49.246Z,57.50
2023-11-08T14:01:18.730Z,58.44
2023-11-08T14:03:47.240Z,57.75
2023-11-08T14:06:15.218Z,57.41
2023-11-08T14:08:43.341Z,57.71
2023-11-08T14:11:12.997Z,58.03
2023-11-08T14:13:41.941Z,57.61
2023-11-08T14:16:10.203Z,57.59
2023-11-08T14:18:38.246Z,57.59
2023-11-08T14:21:06.444Z,57.85
2023-11-08T14:23:34.363Z,56.94
2023-11-08T14:26:02.447Z,56.26
2023-11-08T14:28:30.466Z,56.67
2023-11-08T14:30:58.493Z,56.76
2023-11-08T14:33:27.079Z,57.18
2023-11-08T14:35:55.185Z,56.84
2023-11-08T14:38:23.298Z,57.23
2023-11-08T14:40:52.375Z,57.12
2023-11-08T14:43:24.603Z,57.33
2023-11-08T14:45:53.444Z,57.60
2023-11-08T14:48:21.876Z,56.73
2023-11-08T14:50:50.431Z,57.49
2023-11-08T14:53:18.459Z,57.13
2023-11-08T14:55:49.447Z,56.85
2023-11-08T14:58:17.439Z,57.38
2023-11-08T15:00:47.136Z,56.49
2023-11-08T15:03:15.155Z,57.17
2023-11-08T15:05:43.247Z,57.34
2023-11-08T15:09:49.079Z,57.63
2023-11-08T15:10:59.511Z,57.75
2023-11-08T15:13:27.772Z,57.88
2023-11-08T15:15:55.713Z,58.06
2023-11-08T15:18:27.128Z,58.22
2023-11-08T15:20:55.114Z,58.31
2023-11-08T15:23:23.287Z,58.51
2023-11-08T15:25:51.194Z,58.95
2023-11-08T15:28:19.254Z,58.80
2023-11-08T15:30:47.480Z,59.29
2023-11-08T15:33:15.490Z,59.98
2023-11-08T15:35:43.653Z,60.60
2023-11-08T15:38:11.951Z,61.13
2023-11-08T15:40:39.991Z,61.25
2023-11-08T15:43:08.532Z,61.89
2023-11-08T15:45:37.114Z,62.42
2023-11-08T15:48:05.854Z,62.80
2023-11-08T15:50:34.027Z,63.45
2023-11-08T15:53:01.977Z,63.92
2023-11-08T15:55:30.001Z,64.22
2023-11-08T15:57:58.477Z,64.50
2023-11-08T16:00:26.534Z,64.95
2023-11-08T16:02:54.851Z,65.26
2023-11-08T16:05:22.815Z,65.51
2023-11-08T16:07:52.088Z,65.95
2023-11-08T16:10:20.466Z,66.35
2023-11-08T16:12:48.469Z,66.60
2023-11-08T16:15:16.477Z,66.97
2023-11-08T16:17:44.409Z,67.35
2023-11-08T16:20:13.232Z,67.73
2023-11-08T16:22:42.033Z,67.83
2023-11-08T16:25:10.622Z,68.14
2023-11-08T16:27:38.649Z,68.31
2023-11-08T16:30:09.840Z,68.54
2023-11-08T16:32:43.052Z,68.70
2023-11-08T16:35:15.397Z,68.94
2023-11-08T16:37:43.453Z,69.18
2023-11-08T16:40:13.145Z,69.31
2023-11-08T16:42:41.362Z,69.72
2023-11-08T16:45:09.902Z,70.07
2023-11-08T16:47:38.008Z,70.21
2023-11-08T16:50:06.779Z,70.39
2023-11-08T16:52:34.724Z,70.39
2023-11-08T16:55:02.761Z,70.40
2023-11-08T16:57:32.230Z,71.08
2023-11-08T17:00:00.254Z,71.25
2023-11-08T17:02:31.189Z,71.33
2023-11-08T17:04:59.823Z,71.76
2023-11-08T17:07:28.038Z,71.86
2023-11-08T17:09:55.994Z,72.45
2023-11-08T17:12:24.144Z,72.20
2023-11-08T17:14:52.696Z,72.40
2023-11-08T17:17:20.844Z,72.69
2023-11-08T17:19:49.933Z,73.21
2023-11-08T17:22:18.083Z,73.53
2023-11-08T17:24:48.339Z,73.57
2023-11-08T17:27:16.921Z,73.80
2023-11-08T17:29:45.915Z,73.84
2023-11-08T17:32:13.866Z,74.45
2023-11-08T17:34:42.005Z,74.44
2023-11-08T17:37:10.186Z,74.75
2023-11-08T17:39:38.170Z,75.05
2023-11-08T17:42:06.495Z,75.40
2023-11-08T17:44:34.500Z,75.78
2023-11-08T17:47:02.493Z,76.18
2023-11-08T17:49:30.849Z,76.30
2023-11-08T17:51:58.870Z,76.52
2023-11-08T17:54:26.872Z,76.63
2023-11-08T17:56:54.897Z,76.80
2023-11-08T17:59:23.456Z,76.83
2023-11-08T18:01:51.411Z,77.41
2023-11-08T18:04:19.474Z,77.32
2023-11-08T18:06:47.537Z,77.46
2023-11-08T18:09:16.919Z,77.80
2023-11-08T18:11:45.577Z,78.05
2023-11-08T18:14:13.606Z,78.23
2023-11-08T18:16:41.605Z,78.11
2023-11-08T18:19:09.864Z,78.16
2023-11-08T18:21:37.863Z,78.51
2023-11-08T18:24:06.304Z,78.09
2023-11-08T18:26:34.227Z,78.43
2023-11-08T18:29:02.221Z,78.76
2023-11-08T18:31:30.328Z,78.86
2023-11-08T18:33:58.517Z,78.93
2023-11-08T18:36:28.062Z,78.65
2023-11-08T18:38:56.642Z,78.79
2023-11-08T18:41:25.287Z,78.99
2023-11-08T18:43:54.711Z,78.98
2023-11-08T18:46:23.033Z,78.86
2023-11-08T18:48:51.132Z,79.30
2023-11-08T18:51:19.965Z,79.61
2023-11-08T18:53:48.014Z,79.73
2023-11-08T18:56:16.136Z,79.87
2023-11-08T18:58:44.200Z,79.53
2023-11-08T19:01:12.590Z,79.50
2023-11-08T19:03:40.712Z,80.20
2023-11-08T19:06:09.137Z,80.16
2023-11-08T19:08:37.436Z,80.41
2023-11-08T19:11:10.368Z,80.46
2023-11-08T19:13:39.555Z,80.16
2023-11-08T19:16:10.580Z,80.54
2023-11-08T19:18:39.746Z,80.49
2023-11-08T19:21:08.413Z,80.61
2023-11-08T19:23:36.405Z,80.55
2023-11-08T19:26:04.438Z,80.57
2023-11-08T19:28:32.563Z,80.93
2023-11-08T19:31:01.099Z,80.89
2023-11-08T19:33:29.549Z,81.22
2023-11-08T19:36:00.459Z,81.17
2023-11-08T19:38:29.561Z,80.99
2023-11-08T19:40:57.529Z,80.66
2023-11-08T19:43:26.894Z,81.19
2023-11-08T19:45:54.943Z,81.21
2023-11-08T19:48:22.974Z,81.17
2023-11-08T19:50:51.141Z,81.12
2023-11-08T19:53:19.238Z,81.19
2023-11-08T19:55:47.255Z,81.49
2023-11-08T19:58:17.024Z,81.34
2023-11-08T20:00:45.124Z,81.52
2023-11-08T20:03:13.144Z,81.51
2023-11-08T20:05:43.076Z,81.51
2023-11-08T20:08:11.141Z,81.60
2023-11-08T20:10:42.709Z,81.51
2023-11-08T20:13:12.558Z,81.20
2023-11-08T20:15:40.674Z,81.12
2023-11-08T20:18:08.689Z,80.74
2023-11-08T20:20:36.587Z,80.76
2023-11-08T20:23:04.772Z,80.66
2023-11-08T20:25:33.054Z,80.92
2023-11-08T20:28:01.178Z,81.65
2023-11-08T20:30:31.804Z,88.36
2023-11-08T20:32:59.931Z,87.89
2023-11-08T20:35:28.001Z,91.27
2023-11-08T20:37:56.151Z,93.14
2023-11-08T20:40:24.393Z,93.55
2023-11-08T20:42:53.125Z,96.53
2023-11-08T20:45:22.247Z,98.38
2023-11-08T20:47:50.355Z,96.42
2023-11-08T20:50:18.505Z,95.66
2023-11-08T20:52:49.529Z,93.23
2023-11-08T20:55:17.861Z,91.72
2023-11-08T20:57:48.396Z,90.81
2023-11-08T21:00:17.952Z,89.86
2023-11-08T21:02:45.941Z,89.21
2023-11-08T21:05:17.240Z,88.72
2023-11-08T21:07:51.508Z,88.31
2023-11-08T21:10:23.728Z,87.87
2023-11-08T21:12:52.033Z,87.23
2023-11-08T21:15:20.273Z,86.70
2023-11-08T21:17:55.457Z,87.25
2023-11-08T21:20:25.435Z,86.95
2023-11-08T21:22:53.450Z,86.75
2023-11-08T21:25:21.913Z,85.99
2023-11-08T21:28:00.315Z,86.72
2023-11-08T21:30:32.586Z,87.02
2023-11-08T21:33:00.686Z,87.18
2023-11-08T21:35:31.626Z,87.50
2023-11-08T21:38:00.558Z,86.76
2023-11-08T21:40:28.715Z,87.28
2023-11-08T21:42:56.968Z,86.87
2023-11-08T21:45:25.029Z,86.92
2023-11-08T21:47:53.768Z,86.74
2023-11-08T21:50:21.849Z,86.90
2023-11-08T21:52:49.805Z,87.03
2023-11-08T21:55:19.187Z,87.25
2023-11-08T21:57:47.642Z,87.07
2023-11-08T22:00:17.674Z,87.48
2023-11-08T22:02:45.731Z,87.37
2023-11-08T22:05:13.704Z,87.35
2023-11-08T22:07:41.715Z,87.33
2023-11-08T22:10:12.092Z,87.23
2023-11-08T22:12:40.709Z,86.71
2023-11-08T22:15:09.231Z,86.84
2023-11-08T22:17:37.422Z,86.80
2023-11-08T22:20:07.139Z,86.60
2023-11-08T22:22:35.244Z,86.64
2023-11-08T22:25:03.264Z,86.60
2023-11-08T22:27:31.247Z,86.14
2023-11-08T22:29:59.172Z,86.07
2023-11-08T22:32:27.105Z,86.06
2023-11-08T22:34:55.022Z,85.95
2023-11-08T22:37:23.920Z,85.53
2023-11-08T22:39:51.956Z,85.86
2023-11-08T22:42:19.969Z,86.26
2023-11-08T22:44:49.439Z,86.21
2023-11-08T22:47:17.483Z,86.56
2023-11-08T22:49:46.621Z,87.07
2023-11-08T22:52:14.604Z,87.74
2023-11-08T22:54:42.770Z,87.84
2023-11-08T22:57:11.013Z,88.37
2023-11-08T22:59:38.920Z,88.77
2023-11-08T23:02:06.802Z,89.06
2023-11-08T23:04:34.747Z,88.34
2023-11-08T23:07:02.913Z,88.81
2023-11-08T23:09:30.834Z,88.92
2023-11-08T23:11:58.896Z,88.75
2023-11-08T23:14:26.846Z,88.62
2023-11-08T23:16:54.889Z,88.93
2023-11-08T23:19:22.984Z,88.41
2023-11-08T23:21:50.990Z,89.19
2023-11-08T23:24:21.464Z,89.06
2023-11-08T23:26:49.713Z,88.65
2023-11-08T23:29:17.747Z,89.79
2023-11-08T23:31:45.766Z,89.26
2023-11-08T23:34:13.767Z,89.50
2023-11-08T23:36:42.356Z,89.47
2023-11-08T23:39:11.403Z,89.53
2023-11-08T23:41:40.163Z,88.88
2023-11-08T23:44:10.508Z,88.79
2023-11-08T23:46:38.467Z,88.65
2023-11-08T23:49:06.495Z,89.09
2023-11-08T23:51:37.127Z,88.90
2023-11-08T23:54:05.732Z,89.21
2023-11-08T23:56:33.663Z,88.68
2023-11-08T23:59:01.843Z,89.23
